sensor_id;sensor_type;location;lat;lon;timestamp;temperature;humidity
57652;DHT22;43480;53.116;6.734;2022-12-29T00:01:29;10.10;99.90
57652;DHT22;43480;53.116;6.734;2022-12-29T00:03:55;10.10;99.90
57652;DHT22;43480;53.116;6.734;2022-12-29T00:06:20;10.10;99.90
57652;DHT22;43480;53.116;6.734;2022-12-29T00:08:46;10.10;99.90
57652;DHT22;43480;53.116;6.734;2022-12-29T00:11:13;10.10;99.90
57652;DHT22;43480;53.116;6.734;2022-12-29T00:13:38;10.10;99.90
57652;DHT22;43480;53.116;6.734;2022-12-29T00:16:23;10.10;99.90
57652;DHT22;43480;53.116;6.734;2022-12-29T00:18:48;10.10;99.90
57652;DHT22;43480;53.116;6.734;2022-12-29T00:21:15;10.10;99.90
57652;DHT22;43480;53.116;6.734;2022-12-29T00:23:59;10.00;99.90
57652;DHT22;43480;53.116;6.734;2022-12-29T00:26:40;10.00;99.90
57652;DHT22;43480;53.116;6.734;2022-12-29T00:29:24;10.00;99.90
57652;DHT22;43480;53.116;6.734;2022-12-29T00:32:09;10.10;99.90
57652;DHT22;43480;53.116;6.734;2022-12-29T00:34:53;10.10;99.90
57652;DHT22;43480;53.116;6.734;2022-12-29T00:37:43;10.10;99.90
57652;DHT22;43480;53.116;6.734;2022-12-29T00:40:27;10.10;99.90
57652;DHT22;43480;53.116;6.734;2022-12-29T00:43:11;10.10;99.90
57652;DHT22;43480;53.116;6.734;2022-12-29T00:45:55;10.20;99.90
57652;DHT22;43480;53.116;6.734;2022-12-29T00:48:21;10.20;99.90
57652;DHT22;43480;53.116;6.734;2022-12-29T00:51:05;10.20;99.90
57652;DHT22;43480;53.116;6.734;2022-12-29T00:53:31;10.20;99.90
57652;DHT22;43480;53.116;6.734;2022-12-29T00:55:56;10.30;99.90
57652;DHT22;43480;53.116;6.734;2022-12-29T00:58:22;10.30;99.90
57652;DHT22;43480;53.116;6.734;2022-12-29T01:00:47;10.30;99.90
57652;DHT22;43480;53.116;6.734;2022-12-29T01:03:13;10.30;99.90
57652;DHT22;43480;53.116;6.734;2022-12-29T01:05:38;10.30;99.90
57652;DHT22;43480;53.116;6.734;2022-12-29T01:08:04;10.30;99.90
57652;DHT22;43480;53.116;6.734;2022-12-29T01:10:29;10.30;99.90
57652;DHT22;43480;53.116;6.734;2022-12-29T01:12:55;10.30;99.90
57652;DHT22;43480;53.116;6.734;2022-12-29T01:15:21;10.30;99.90
57652;DHT22;43480;53.116;6.734;2022-12-29T01:17:46;10.30;99.90
57652;DHT22;43480;53.116;6.734;2022-12-29T01:20:12;10.30;99.90
57652;DHT22;43480;53.116;6.734;2022-12-29T01:22:38;10.30;99.90
57652;DHT22;43480;53.116;6.734;2022-12-29T01:25:04;10.40;99.90
57652;DHT22;43480;53.116;6.734;2022-12-29T01:27:29;10.40;99.90
57652;DHT22;43480;53.116;6.734;2022-12-29T01:29:55;10.40;99.90
57652;DHT22;43480;53.116;6.734;2022-12-29T01:32:20;10.40;99.90
57652;DHT22;43480;53.116;6.734;2022-12-29T01:34:46;10.40;99.90
57652;DHT22;43480;53.116;6.734;2022-12-29T01:37:11;10.40;99.90
57652;DHT22;43480;53.116;6.734;2022-12-29T01:39:37;10.40;99.90
57652;DHT22;43480;53.116;6.734;2022-12-29T01:42:03;10.40;99.90
57652;DHT22;43480;53.116;6.734;2022-12-29T01:47:08;10.40;99.90
57652;DHT22;43480;53.116;6.734;2022-12-29T01:49:33;10.40;99.90
57652;DHT22;43480;53.116;6.734;2022-12-29T01:52:01;10.40;99.90
57652;DHT22;43480;53.116;6.734;2022-12-29T01:54:32;10.40;99.90
57652;DHT22;43480;53.116;6.734;2022-12-29T01:56:59;10.40;99.90
57652;DHT22;43480;53.116;6.734;2022-12-29T01:59:27;10.40;99.90
57652;DHT22;43480;53.116;6.734;2022-12-29T02:01:54;10.30;99.90
57652;DHT22;43480;53.116;6.734;2022-12-29T02:04:20;10.40;99.90
57652;DHT22;43480;53.116;6.734;2022-12-29T02:09:15;10.40;99.90
57652;DHT22;43480;53.116;6.734;2022-12-29T02:11:41;10.40;99.90
57652;DHT22;43480;53.116;6.734;2022-12-29T02:14:10;10.50;99.90
57652;DHT22;43480;53.116;6.734;2022-12-29T02:21:41;10.50;99.90
57652;DHT22;43480;53.116;6.734;2022-12-29T02:24:25;10.60;99.90
57652;DHT22;43480;53.116;6.734;2022-12-29T02:29:45;10.60;99.90
57652;DHT22;43480;53.116;6.734;2022-12-29T02:32:30;10.60;99.90
57652;DHT22;43480;53.116;6.734;2022-12-29T02:40:26;10.60;99.90
57652;DHT22;43480;53.116;6.734;2022-12-29T02:42:58;10.60;99.90
57652;DHT22;43480;53.116;6.734;2022-12-29T02:47:52;10.50;99.90
57652;DHT22;43480;53.116;6.734;2022-12-29T02:50:23;10.40;99.90
57652;DHT22;43480;53.116;6.734;2022-12-29T02:53:00;10.40;99.90
57652;DHT22;43480;53.116;6.734;2022-12-29T02:55:26;10.30;99.90
57652;DHT22;43480;53.116;6.734;2022-12-29T03:01:01;10.30;99.90
57652;DHT22;43480;53.116;6.734;2022-12-29T03:03:36;10.30;99.90
57652;DHT22;43480;53.116;6.734;2022-12-29T03:08:35;10.30;99.90
57652;DHT22;43480;53.116;6.734;2022-12-29T03:11:05;10.40;99.90
57652;DHT22;43480;53.116;6.734;2022-12-29T03:13:52;10.40;99.90
57652;DHT22;43480;53.116;6.734;2022-12-29T03:16:43;10.40;99.90
57652;DHT22;43480;53.116;6.734;2022-12-29T03:19:11;10.40;99.90
57652;DHT22;43480;53.116;6.734;2022-12-29T03:21:42;10.50;99.90
57652;DHT22;43480;53.116;6.734;2022-12-29T03:24:28;10.50;99.90
57652;DHT22;43480;53.116;6.734;2022-12-29T03:26:55;10.50;99.90
57652;DHT22;43480;53.116;6.734;2022-12-29T03:29:22;10.60;99.90
57652;DHT22;43480;53.116;6.734;2022-12-29T03:31:48;10.60;99.90
57652;DHT22;43480;53.116;6.734;2022-12-29T03:34:15;10.60;99.90
57652;DHT22;43480;53.116;6.734;2022-12-29T03:36:44;10.70;99.90
57652;DHT22;43480;53.116;6.734;2022-12-29T03:39:11;10.70;99.90
57652;DHT22;43480;53.116;6.734;2022-12-29T03:41:37;10.60;99.90
57652;DHT22;43480;53.116;6.734;2022-12-29T03:44:08;10.60;99.90
57652;DHT22;43480;53.116;6.734;2022-12-29T03:46:33;10.60;99.90
57652;DHT22;43480;53.116;6.734;2022-12-29T03:48:59;10.60;99.90
57652;DHT22;43480;53.116;6.734;2022-12-29T03:51:25;10.60;99.90
57652;DHT22;43480;53.116;6.734;2022-12-29T03:53:50;10.60;99.90
57652;DHT22;43480;53.116;6.734;2022-12-29T03:56:16;10.50;99.90
57652;DHT22;43480;53.116;6.734;2022-12-29T03:58:41;10.50;99.90
57652;DHT22;43480;53.116;6.734;2022-12-29T04:01:07;10.40;99.90
57652;DHT22;43480;53.116;6.734;2022-12-29T04:03:32;10.50;99.90
57652;DHT22;43480;53.116;6.734;2022-12-29T04:05:58;10.50;99.90
57652;DHT22;43480;53.116;6.734;2022-12-29T04:08:23;10.50;99.90
57652;DHT22;43480;53.116;6.734;2022-12-29T04:10:49;10.50;99.90
57652;DHT22;43480;53.116;6.734;2022-12-29T04:13:15;10.40;99.90
57652;DHT22;43480;53.116;6.734;2022-12-29T04:15:41;10.40;99.90
57652;DHT22;43480;53.116;6.734;2022-12-29T04:18:07;10.40;99.90
57652;DHT22;43480;53.116;6.734;2022-12-29T04:20:33;10.50;99.90
57652;DHT22;43480;53.116;6.734;2022-12-29T04:23:17;10.50;99.90
57652;DHT22;43480;53.116;6.734;2022-12-29T04:25:45;10.40;99.90
57652;DHT22;43480;53.116;6.734;2022-12-29T04:28:10;10.50;99.90
57652;DHT22;43480;53.116;6.734;2022-12-29T04:30:36;10.50;99.90
57652;DHT22;43480;53.116;6.734;2022-12-29T04:33:01;10.50;99.90
57652;DHT22;43480;53.116;6.734;2022-12-29T04:35:27;10.40;99.90
57652;DHT22;43480;53.116;6.734;2022-12-29T04:37:52;10.50;99.90
57652;DHT22;43480;53.116;6.734;2022-12-29T04:40:18;10.60;99.90
57652;DHT22;43480;53.116;6.734;2022-12-29T04:42:43;10.50;99.90
57652;DHT22;43480;53.116;6.734;2022-12-29T04:45:09;10.50;99.90
57652;DHT22;43480;53.116;6.734;2022-12-29T04:47:35;10.50;99.90
57652;DHT22;43480;53.116;6.734;2022-12-29T04:50:00;10.50;99.90
57652;DHT22;43480;53.116;6.734;2022-12-29T04:52:26;10.50;99.90
57652;DHT22;43480;53.116;6.734;2022-12-29T04:54:51;10.50;99.90
57652;DHT22;43480;53.116;6.734;2022-12-29T04:57:17;10.50;99.90
57652;DHT22;43480;53.116;6.734;2022-12-29T04:59:42;10.50;99.90
57652;DHT22;43480;53.116;6.734;2022-12-29T05:02:08;10.50;99.90
57652;DHT22;43480;53.116;6.734;2022-12-29T05:04:33;10.50;99.90
57652;DHT22;43480;53.116;6.734;2022-12-29T05:06:59;10.40;99.90
57652;DHT22;43480;53.116;6.734;2022-12-29T05:09:24;10.30;99.90
57652;DHT22;43480;53.116;6.734;2022-12-29T05:11:50;10.30;99.90
57652;DHT22;43480;53.116;6.734;2022-12-29T05:14:15;10.20;99.90
57652;DHT22;43480;53.116;6.734;2022-12-29T05:16:41;10.10;99.90
57652;DHT22;43480;53.116;6.734;2022-12-29T05:19:06;10.10;99.90
57652;DHT22;43480;53.116;6.734;2022-12-29T05:21:32;10.10;99.90
57652;DHT22;43480;53.116;6.734;2022-12-29T05:23:57;10.10;99.90
57652;DHT22;43480;53.116;6.734;2022-12-29T05:26:23;10.00;99.90
57652;DHT22;43480;53.116;6.734;2022-12-29T05:28:48;9.90;99.90
57652;DHT22;43480;53.116;6.734;2022-12-29T05:31:14;9.90;99.90
57652;DHT22;43480;53.116;6.734;2022-12-29T05:33:39;9.90;99.90
57652;DHT22;43480;53.116;6.734;2022-12-29T05:36:05;9.90;99.90
57652;DHT22;43480;53.116;6.734;2022-12-29T05:38:31;9.90;99.90
57652;DHT22;43480;53.116;6.734;2022-12-29T05:40:57;9.90;99.90
57652;DHT22;43480;53.116;6.734;2022-12-29T05:43:22;9.90;99.90
57652;DHT22;43480;53.116;6.734;2022-12-29T05:45:48;9.80;99.90
57652;DHT22;43480;53.116;6.734;2022-12-29T05:48:14;9.80;99.90
57652;DHT22;43480;53.116;6.734;2022-12-29T05:50:39;9.80;99.90
57652;DHT22;43480;53.116;6.734;2022-12-29T05:53:05;9.70;99.90
57652;DHT22;43480;53.116;6.734;2022-12-29T05:55:30;9.70;99.90
57652;DHT22;43480;53.116;6.734;2022-12-29T05:57:56;9.70;99.90
57652;DHT22;43480;53.116;6.734;2022-12-29T06:00:21;9.60;99.90
57652;DHT22;43480;53.116;6.734;2022-12-29T06:02:47;9.60;99.90
57652;DHT22;43480;53.116;6.734;2022-12-29T06:05:12;9.60;99.90
57652;DHT22;43480;53.116;6.734;2022-12-29T06:07:38;9.60;99.90
57652;DHT22;43480;53.116;6.734;2022-12-29T06:10:04;9.70;99.90
57652;DHT22;43480;53.116;6.734;2022-12-29T06:12:30;9.70;99.90
57652;DHT22;43480;53.116;6.734;2022-12-29T06:14:55;9.80;99.90
57652;DHT22;43480;53.116;6.734;2022-12-29T06:17:21;9.80;99.90
57652;DHT22;43480;53.116;6.734;2022-12-29T06:19:46;9.80;99.90
57652;DHT22;43480;53.116;6.734;2022-12-29T06:22:12;9.80;99.90
57652;DHT22;43480;53.116;6.734;2022-12-29T06:24:37;9.80;99.90
57652;DHT22;43480;53.116;6.734;2022-12-29T06:27:03;9.70;99.90
57652;DHT22;43480;53.116;6.734;2022-12-29T06:29:28;9.70;99.90
57652;DHT22;43480;53.116;6.734;2022-12-29T06:31:54;9.70;99.90
57652;DHT22;43480;53.116;6.734;2022-12-29T06:34:23;9.70;99.90
57652;DHT22;43480;53.116;6.734;2022-12-29T06:36:49;9.70;99.90
57652;DHT22;43480;53.116;6.734;2022-12-29T06:39:14;9.60;99.90
57652;DHT22;43480;53.116;6.734;2022-12-29T06:41:40;9.60;99.90
57652;DHT22;43480;53.116;6.734;2022-12-29T06:44:05;9.60;99.90
57652;DHT22;43480;53.116;6.734;2022-12-29T06:46:31;9.60;99.90
57652;DHT22;43480;53.116;6.734;2022-12-29T06:48:56;9.60;99.90
57652;DHT22;43480;53.116;6.734;2022-12-29T06:51:22;9.60;99.90
57652;DHT22;43480;53.116;6.734;2022-12-29T06:53:47;9.60;99.90
57652;DHT22;43480;53.116;6.734;2022-12-29T06:56:13;9.60;99.90
57652;DHT22;43480;53.116;6.734;2022-12-29T06:58:38;9.50;99.90
57652;DHT22;43480;53.116;6.734;2022-12-29T07:01:04;9.60;99.90
57652;DHT22;43480;53.116;6.734;2022-12-29T07:03:30;9.60;99.90
57652;DHT22;43480;53.116;6.734;2022-12-29T07:05:55;9.50;99.90
57652;DHT22;43480;53.116;6.734;2022-12-29T07:08:23;9.70;99.90
57652;DHT22;43480;53.116;6.734;2022-12-29T07:10:49;9.60;99.90
57652;DHT22;43480;53.116;6.734;2022-12-29T07:13:14;9.60;99.90
57652;DHT22;43480;53.116;6.734;2022-12-29T07:15:40;9.60;99.90
57652;DHT22;43480;53.116;6.734;2022-12-29T07:18:05;9.60;99.90
57652;DHT22;43480;53.116;6.734;2022-12-29T07:20:31;9.60;99.90
57652;DHT22;43480;53.116;6.734;2022-12-29T07:22:57;9.60;99.90
57652;DHT22;43480;53.116;6.734;2022-12-29T07:25:22;9.60;99.90
57652;DHT22;43480;53.116;6.734;2022-12-29T07:27:48;9.70;99.90
57652;DHT22;43480;53.116;6.734;2022-12-29T07:30:14;9.70;99.90
57652;DHT22;43480;53.116;6.734;2022-12-29T07:32:39;9.70;99.90
57652;DHT22;43480;53.116;6.734;2022-12-29T07:35:05;9.70;99.90
57652;DHT22;43480;53.116;6.734;2022-12-29T07:37:31;9.70;99.90
57652;DHT22;43480;53.116;6.734;2022-12-29T07:39:57;9.70;99.90
57652;DHT22;43480;53.116;6.734;2022-12-29T07:42:22;9.70;99.90
57652;DHT22;43480;53.116;6.734;2022-12-29T07:44:48;9.70;99.90
57652;DHT22;43480;53.116;6.734;2022-12-29T07:47:13;9.70;99.90
57652;DHT22;43480;53.116;6.734;2022-12-29T07:49:39;9.70;99.90
57652;DHT22;43480;53.116;6.734;2022-12-29T07:52:04;9.70;99.90
57652;DHT22;43480;53.116;6.734;2022-12-29T07:54:30;9.70;99.90
57652;DHT22;43480;53.116;6.734;2022-12-29T07:56:56;9.70;99.90
57652;DHT22;43480;53.116;6.734;2022-12-29T07:59:22;9.80;99.90
57652;DHT22;43480;53.116;6.734;2022-12-29T08:01:48;9.80;99.90
57652;DHT22;43480;53.116;6.734;2022-12-29T08:04:14;9.80;99.90
57652;DHT22;43480;53.116;6.734;2022-12-29T08:06:39;9.80;99.90
57652;DHT22;43480;53.116;6.734;2022-12-29T08:09:05;9.80;99.90
57652;DHT22;43480;53.116;6.734;2022-12-29T08:11:30;9.80;99.90
57652;DHT22;43480;53.116;6.734;2022-12-29T08:13:56;9.80;99.90
57652;DHT22;43480;53.116;6.734;2022-12-29T08:16:21;9.80;99.90
57652;DHT22;43480;53.116;6.734;2022-12-29T08:18:47;9.70;99.90
57652;DHT22;43480;53.116;6.734;2022-12-29T08:21:12;9.80;99.90
57652;DHT22;43480;53.116;6.734;2022-12-29T08:23:38;9.80;99.90
57652;DHT22;43480;53.116;6.734;2022-12-29T08:26:04;9.80;99.90
57652;DHT22;43480;53.116;6.734;2022-12-29T08:28:30;9.80;99.90
57652;DHT22;43480;53.116;6.734;2022-12-29T08:30:59;9.80;99.90
57652;DHT22;43480;53.116;6.734;2022-12-29T08:33:25;9.90;99.90
57652;DHT22;43480;53.116;6.734;2022-12-29T08:35:51;9.80;99.90
57652;DHT22;43480;53.116;6.734;2022-12-29T08:38:17;9.90;99.90
57652;DHT22;43480;53.116;6.734;2022-12-29T08:40:43;9.80;99.90
57652;DHT22;43480;53.116;6.734;2022-12-29T08:43:09;9.90;99.90
57652;DHT22;43480;53.116;6.734;2022-12-29T08:45:34;9.90;99.90
57652;DHT22;43480;53.116;6.734;2022-12-29T08:48:00;9.90;99.90
57652;DHT22;43480;53.116;6.734;2022-12-29T08:50:26;9.70;99.90
57652;DHT22;43480;53.116;6.734;2022-12-29T08:52:51;9.80;99.90
57652;DHT22;43480;53.116;6.734;2022-12-29T08:55:17;9.80;99.90
57652;DHT22;43480;53.116;6.734;2022-12-29T08:57:42;9.80;99.90
57652;DHT22;43480;53.116;6.734;2022-12-29T09:00:08;9.80;99.90
57652;DHT22;43480;53.116;6.734;2022-12-29T09:02:34;9.80;99.90
57652;DHT22;43480;53.116;6.734;2022-12-29T09:04:59;9.90;99.90
57652;DHT22;43480;53.116;6.734;2022-12-29T09:07:25;9.80;99.90
57652;DHT22;43480;53.116;6.734;2022-12-29T09:09:51;9.80;99.90
57652;DHT22;43480;53.116;6.734;2022-12-29T09:12:16;9.80;99.90
57652;DHT22;43480;53.116;6.734;2022-12-29T09:14:42;9.70;99.90
57652;DHT22;43480;53.116;6.734;2022-12-29T09:17:09;9.70;99.90
57652;DHT22;43480;53.116;6.734;2022-12-29T09:19:53;9.70;99.90
57652;DHT22;43480;53.116;6.734;2022-12-29T09:22:19;9.70;99.90
57652;DHT22;43480;53.116;6.734;2022-12-29T09:24:44;9.70;99.90
57652;DHT22;43480;53.116;6.734;2022-12-29T09:27:10;9.70;99.90
57652;DHT22;43480;53.116;6.734;2022-12-29T09:29:35;9.70;99.90
57652;DHT22;43480;53.116;6.734;2022-12-29T09:32:01;9.60;99.90
57652;DHT22;43480;53.116;6.734;2022-12-29T09:34:27;9.50;99.90
57652;DHT22;43480;53.116;6.734;2022-12-29T09:36:52;9.40;99.90
57652;DHT22;43480;53.116;6.734;2022-12-29T09:39:18;9.30;99.90
57652;DHT22;43480;53.116;6.734;2022-12-29T09:47:02;9.20;99.90
57652;DHT22;43480;53.116;6.734;2022-12-29T09:49:29;9.20;99.90
57652;DHT22;43480;53.116;6.734;2022-12-29T09:51:59;9.20;99.90
57652;DHT22;43480;53.116;6.734;2022-12-29T09:54:32;9.30;99.90
57652;DHT22;43480;53.116;6.734;2022-12-29T09:57:01;9.40;99.90
57652;DHT22;43480;53.116;6.734;2022-12-29T09:59:31;9.50;99.90
57652;DHT22;43480;53.116;6.734;2022-12-29T10:02:06;9.50;99.90
57652;DHT22;43480;53.116;6.734;2022-12-29T10:04:43;9.40;99.90
57652;DHT22;43480;53.116;6.734;2022-12-29T10:07:55;9.40;99.90
57652;DHT22;43480;53.116;6.734;2022-12-29T10:10:15;9.30;99.90
57652;DHT22;43480;53.116;6.734;2022-12-29T10:13:09;9.30;99.90
57652;DHT22;43480;53.116;6.734;2022-12-29T10:15:40;9.30;99.90
57652;DHT22;43480;53.116;6.734;2022-12-29T10:25:38;9.40;99.90
57652;DHT22;43480;53.116;6.734;2022-12-29T10:28:05;9.40;99.90
57652;DHT22;43480;53.116;6.734;2022-12-29T10:30:32;9.50;99.90
57652;DHT22;43480;53.116;6.734;2022-12-29T10:32:58;9.40;99.90
57652;DHT22;43480;53.116;6.734;2022-12-29T10:35:26;9.30;99.90
57652;DHT22;43480;53.116;6.734;2022-12-29T10:37:59;9.20;99.90
57652;DHT22;43480;53.116;6.734;2022-12-29T10:40:40;9.20;99.90
57652;DHT22;43480;53.116;6.734;2022-12-29T10:43:15;9.10;99.90
57652;DHT22;43480;53.116;6.734;2022-12-29T10:45:43;9.10;99.90
57652;DHT22;43480;53.116;6.734;2022-12-29T10:48:11;8.90;99.90
57652;DHT22;43480;53.116;6.734;2022-12-29T10:50:40;8.90;99.90
57652;DHT22;43480;53.116;6.734;2022-12-29T10:53:08;8.90;99.90
57652;DHT22;43480;53.116;6.734;2022-12-29T10:55:38;8.90;99.90
57652;DHT22;43480;53.116;6.734;2022-12-29T10:58:07;9.00;99.90
57652;DHT22;43480;53.116;6.734;2022-12-29T11:00:36;9.00;99.90
57652;DHT22;43480;53.116;6.734;2022-12-29T11:03:08;9.00;99.90
57652;DHT22;43480;53.116;6.734;2022-12-29T11:05:37;9.00;99.90
57652;DHT22;43480;53.116;6.734;2022-12-29T11:08:04;9.10;99.90
57652;DHT22;43480;53.116;6.734;2022-12-29T11:13:12;9.10;99.90
57652;DHT22;43480;53.116;6.734;2022-12-29T11:15:39;9.10;99.90
57652;DHT22;43480;53.116;6.734;2022-12-29T11:18:07;9.10;99.90
57652;DHT22;43480;53.116;6.734;2022-12-29T11:20:42;9.10;99.90
57652;DHT22;43480;53.116;6.734;2022-12-29T11:28:37;9.20;99.90
57652;DHT22;43480;53.116;6.734;2022-12-29T11:31:04;9.20;99.90
57652;DHT22;43480;53.116;6.734;2022-12-29T11:33:30;9.20;99.90
57652;DHT22;43480;53.116;6.734;2022-12-29T11:35:57;9.30;99.90
57652;DHT22;43480;53.116;6.734;2022-12-29T11:38:25;9.40;99.90
57652;DHT22;43480;53.116;6.734;2022-12-29T11:40:51;9.40;99.90
57652;DHT22;43480;53.116;6.734;2022-12-29T11:43:33;9.60;99.90
57652;DHT22;43480;53.116;6.734;2022-12-29T11:45:59;9.60;99.90
57652;DHT22;43480;53.116;6.734;2022-12-29T11:48:26;9.70;99.90
57652;DHT22;43480;53.116;6.734;2022-12-29T11:50:55;9.60;99.90
57652;DHT22;43480;53.116;6.734;2022-12-29T11:53:21;9.60;99.90
57652;DHT22;43480;53.116;6.734;2022-12-29T11:55:59;9.60;99.90
57652;DHT22;43480;53.116;6.734;2022-12-29T11:58:35;9.60;99.90
57652;DHT22;43480;53.116;6.734;2022-12-29T12:03:30;9.80;99.90
57652;DHT22;43480;53.116;6.734;2022-12-29T12:05:58;9.80;99.90
57652;DHT22;43480;53.116;6.734;2022-12-29T12:08:48;9.90;99.90
57652;DHT22;43480;53.116;6.734;2022-12-29T12:11:20;9.90;99.90
57652;DHT22;43480;53.116;6.734;2022-12-29T12:14:00;9.90;99.90
57652;DHT22;43480;53.116;6.734;2022-12-29T12:16:35;9.90;99.90
57652;DHT22;43480;53.116;6.734;2022-12-29T12:21:48;9.90;99.90
57652;DHT22;43480;53.116;6.734;2022-12-29T12:34:37;10.00;99.90
57652;DHT22;43480;53.116;6.734;2022-12-29T12:42:42;10.20;99.90
57652;DHT22;43480;53.116;6.734;2022-12-29T12:50:46;10.40;99.90
57652;DHT22;43480;53.116;6.734;2022-12-29T13:06:38;10.50;99.90
57652;DHT22;43480;53.116;6.734;2022-12-29T13:24:21;10.10;99.90
57652;DHT22;43480;53.116;6.734;2022-12-29T13:26:53;10.00;99.90
57652;DHT22;43480;53.116;6.734;2022-12-29T13:29:22;10.00;99.90
57652;DHT22;43480;53.116;6.734;2022-12-29T13:34:30;9.90;99.90
57652;DHT22;43480;53.116;6.734;2022-12-29T13:37:01;9.90;99.90
57652;DHT22;43480;53.116;6.734;2022-12-29T13:39:37;9.90;99.90
57652;DHT22;43480;53.116;6.734;2022-12-29T13:42:04;9.80;99.90
57652;DHT22;43480;53.116;6.734;2022-12-29T13:44:34;9.80;99.90
57652;DHT22;43480;53.116;6.734;2022-12-29T13:47:02;9.80;99.90
57652;DHT22;43480;53.116;6.734;2022-12-29T13:49:31;9.70;99.90
57652;DHT22;43480;53.116;6.734;2022-12-29T13:51:59;9.80;99.90
57652;DHT22;43480;53.116;6.734;2022-12-29T13:57:02;9.70;99.90
57652;DHT22;43480;53.116;6.734;2022-12-29T14:04:33;9.80;99.90
57652;DHT22;43480;53.116;6.734;2022-12-29T14:07:13;9.80;99.90
57652;DHT22;43480;53.116;6.734;2022-12-29T14:14:46;9.70;99.90
57652;DHT22;43480;53.116;6.734;2022-12-29T14:17:11;9.70;99.90
57652;DHT22;43480;53.116;6.734;2022-12-29T14:19:44;9.60;99.90
57652;DHT22;43480;53.116;6.734;2022-12-29T14:22:10;9.60;99.90
57652;DHT22;43480;53.116;6.734;2022-12-29T14:24:41;9.50;99.90
57652;DHT22;43480;53.116;6.734;2022-12-29T14:32:34;9.40;99.90
57652;DHT22;43480;53.116;6.734;2022-12-29T14:34:49;9.30;99.90
57652;DHT22;43480;53.116;6.734;2022-12-29T14:37:25;9.30;99.90
57652;DHT22;43480;53.116;6.734;2022-12-29T14:42:29;9.30;99.90
57652;DHT22;43480;53.116;6.734;2022-12-29T14:49:55;9.30;99.90
57652;DHT22;43480;53.116;6.734;2022-12-29T14:52:23;9.30;99.90
57652;DHT22;43480;53.116;6.734;2022-12-29T14:54:53;9.30;99.90
57652;DHT22;43480;53.116;6.734;2022-12-29T14:57:53;9.30;99.90
57652;DHT22;43480;53.116;6.734;2022-12-29T15:00:22;9.20;99.90
57652;DHT22;43480;53.116;6.734;2022-12-29T15:02:49;9.10;99.90
57652;DHT22;43480;53.116;6.734;2022-12-29T15:05:26;9.10;99.90
57652;DHT22;43480;53.116;6.734;2022-12-29T15:07:53;9.00;99.90
57652;DHT22;43480;53.116;6.734;2022-12-29T15:10:20;9.00;99.90
57652;DHT22;43480;53.116;6.734;2022-12-29T15:12:54;8.90;99.90
57652;DHT22;43480;53.116;6.734;2022-12-29T15:15:24;8.90;99.90
57652;DHT22;43480;53.116;6.734;2022-12-29T15:17:50;9.00;99.90
57652;DHT22;43480;53.116;6.734;2022-12-29T15:20:21;8.80;99.90
57652;DHT22;43480;53.116;6.734;2022-12-29T15:23:30;8.80;99.90
57652;DHT22;43480;53.116;6.734;2022-12-29T15:25:36;8.70;99.90
57652;DHT22;43480;53.116;6.734;2022-12-29T15:28:02;8.70;99.90
57652;DHT22;43480;53.116;6.734;2022-12-29T15:30:28;8.70;99.90
57652;DHT22;43480;53.116;6.734;2022-12-29T15:32:54;8.70;99.90
57652;DHT22;43480;53.116;6.734;2022-12-29T15:35:33;8.70;99.90
57652;DHT22;43480;53.116;6.734;2022-12-29T15:38:00;8.60;99.90
57652;DHT22;43480;53.116;6.734;2022-12-29T15:40:32;8.60;99.90
57652;DHT22;43480;53.116;6.734;2022-12-29T15:45:33;8.60;99.90
57652;DHT22;43480;53.116;6.734;2022-12-29T15:47:59;8.60;99.90
57652;DHT22;43480;53.116;6.734;2022-12-29T15:52:50;8.50;99.90
57652;DHT22;43480;53.116;6.734;2022-12-29T15:55:35;8.50;99.90
57652;DHT22;43480;53.116;6.734;2022-12-29T15:58:03;8.40;99.90
57652;DHT22;43480;53.116;6.734;2022-12-29T16:00:30;8.40;99.90
57652;DHT22;43480;53.116;6.734;2022-12-29T16:02:57;8.40;99.90
57652;DHT22;43480;53.116;6.734;2022-12-29T16:05:23;8.40;99.90
57652;DHT22;43480;53.116;6.734;2022-12-29T16:07:56;8.40;99.90
57652;DHT22;43480;53.116;6.734;2022-12-29T16:10:40;8.40;99.90
57652;DHT22;43480;53.116;6.734;2022-12-29T16:13:22;8.40;99.90
57652;DHT22;43480;53.116;6.734;2022-12-29T16:15:49;8.30;99.90
57652;DHT22;43480;53.116;6.734;2022-12-29T16:18:23;8.30;99.90
57652;DHT22;43480;53.116;6.734;2022-12-29T16:20:50;8.30;99.90
57652;DHT22;43480;53.116;6.734;2022-12-29T16:23:18;8.30;99.90
57652;DHT22;43480;53.116;6.734;2022-12-29T16:25:45;8.30;99.90
57652;DHT22;43480;53.116;6.734;2022-12-29T16:28:15;8.20;99.90
57652;DHT22;43480;53.116;6.734;2022-12-29T16:30:42;8.20;99.90
57652;DHT22;43480;53.116;6.734;2022-12-29T16:35:52;8.20;99.90
57652;DHT22;43480;53.116;6.734;2022-12-29T16:38:18;8.20;99.90
57652;DHT22;43480;53.116;6.734;2022-12-29T16:43:20;8.30;99.90
57652;DHT22;43480;53.116;6.734;2022-12-29T16:48:18;8.20;99.90
57652;DHT22;43480;53.116;6.734;2022-12-29T16:50:44;8.30;99.90
57652;DHT22;43480;53.116;6.734;2022-12-29T16:53:26;8.40;99.90
57652;DHT22;43480;53.116;6.734;2022-12-29T16:55:53;8.40;99.90
57652;DHT22;43480;53.116;6.734;2022-12-29T16:58:22;7.60;99.90
57652;DHT22;43480;53.116;6.734;2022-12-29T17:00:49;6.70;99.90
57652;DHT22;43480;53.116;6.734;2022-12-29T17:03:14;6.10;99.90
57652;DHT22;43480;53.116;6.734;2022-12-29T17:05:40;5.70;99.90
57652;DHT22;43480;53.116;6.734;2022-12-29T17:08:18;5.50;99.90
57652;DHT22;43480;53.116;6.734;2022-12-29T17:10:49;5.50;99.90
57652;DHT22;43480;53.116;6.734;2022-12-29T17:13:33;5.60;99.90
57652;DHT22;43480;53.116;6.734;2022-12-29T17:16:00;5.80;99.90
57652;DHT22;43480;53.116;6.734;2022-12-29T17:18:25;6.00;99.90
57652;DHT22;43480;53.116;6.734;2022-12-29T17:20:51;6.10;99.90
57652;DHT22;43480;53.116;6.734;2022-12-29T17:23:16;6.20;99.90
57652;DHT22;43480;53.116;6.734;2022-12-29T17:25:42;6.30;99.90
57652;DHT22;43480;53.116;6.734;2022-12-29T17:30:48;6.60;99.90
57652;DHT22;43480;53.116;6.734;2022-12-29T17:33:16;6.70;99.90
57652;DHT22;43480;53.116;6.734;2022-12-29T17:35:42;6.80;99.90
57652;DHT22;43480;53.116;6.734;2022-12-29T17:38:25;6.90;99.90
57652;DHT22;43480;53.116;6.734;2022-12-29T17:40:52;6.90;99.90
57652;DHT22;43480;53.116;6.734;2022-12-29T17:43:17;6.90;99.90
57652;DHT22;43480;53.116;6.734;2022-12-29T17:45:46;7.00;99.90
57652;DHT22;43480;53.116;6.734;2022-12-29T17:48:14;6.90;99.90
57652;DHT22;43480;53.116;6.734;2022-12-29T17:50:40;6.90;99.90
57652;DHT22;43480;53.116;6.734;2022-12-29T17:53:11;6.90;99.90
57652;DHT22;43480;53.116;6.734;2022-12-29T17:55:38;6.90;99.90
57652;DHT22;43480;53.116;6.734;2022-12-29T17:58:37;6.90;99.90
57652;DHT22;43480;53.116;6.734;2022-12-29T18:00:57;7.00;99.90
57652;DHT22;43480;53.116;6.734;2022-12-29T18:03:33;7.10;99.90
57652;DHT22;43480;53.116;6.734;2022-12-29T18:05:59;7.10;99.90
57652;DHT22;43480;53.116;6.734;2022-12-29T18:08:24;7.10;99.90
57652;DHT22;43480;53.116;6.734;2022-12-29T18:10:50;7.10;99.90
57652;DHT22;43480;53.116;6.734;2022-12-29T18:15:43;7.10;99.90
57652;DHT22;43480;53.116;6.734;2022-12-29T18:18:16;7.10;99.90